Time;durP1;ratioP1;P1;durP2;ratioP2;P2;SDS_P1;SDS_P2;PMS_P1;PMS_P2;Temp;Humidity;BMP_temperature;BMP_pressure;BME280_temperature;BME280_humidity;BME280_pressure;Samples;Min_cycle;Max_cycle;Signal;HPM_P1;HPM_P2
2022/04/06 00:01:01;;;;;;;18.33;7.72;;;8.80;99.90;;;;;;7245462;32;20127;-58
2022/04/06 00:05:03;;;;;;;17.27;7.30;;;8.80;99.90;;;;;;7248060;32;20183;-59
2022/04/06 00:09:05;;;;;;;20.75;6.87;;;8.80;99.90;;;;;;7246496;32;20386;-58
2022/04/06 00:13:07;;;;;;;21.87;8.70;;;8.80;99.90;;;;;;7247052;32;20398;-59
2022/04/06 00:17:12;;;;;;;21.52;7.72;;;8.70;99.90;;;;;;7247008;32;20148;-59
2022/04/06 00:21:14;;;;;;;16.83;8.00;;;8.70;99.90;;;;;;7244905;32;20400;-59
2022/04/06 00:25:16;;;;;;;19.30;6.85;;;8.70;99.90;;;;;;7240834;32;20196;-59
2022/04/06 00:29:17;;;;;;;17.52;7.43;;;8.70;99.90;;;;;;7246681;32;20132;-60
2022/04/06 00:33:19;;;;;;;14.98;6.12;;;8.80;99.90;;;;;;7246626;32;20170;-60
2022/04/06 00:37:21;;;;;;;15.52;6.60;;;8.80;99.90;;;;;;7245310;32;20179;-60
2022/04/06 00:41:23;;;;;;;12.27;5.90;;;8.80;99.90;;;;;;7245111;32;20237;-59
2022/04/06 00:45:25;;;;;;;16.52;6.62;;;8.70;99.90;;;;;;7245941;32;21877;-59
2022/04/06 00:49:26;;;;;;;15.02;6.37;;;8.70;99.90;;;;;;7245351;32;20103;-60
2022/04/06 00:53:28;;;;;;;17.37;6.53;;;8.70;99.90;;;;;;7246120;32;20101;-59
2022/04/06 00:57:30;;;;;;;14.90;5.60;;;8.70;99.90;;;;;;7230452;32;20166;-59
2022/04/06 01:01:32;;;;;;;13.98;6.35;;;8.70;99.90;;;;;;7243727;32;20150;-58
2022/04/06 01:05:35;;;;;;;15.25;5.85;;;8.70;99.90;;;;;;7245830;32;20130;-59
2022/04/06 01:09:37;;;;;;;19.98;6.65;;;8.70;99.90;;;;;;7245670;32;20579;-59
2022/04/06 01:13:40;;;;;;;19.52;6.15;;;8.70;99.90;;;;;;7245796;32;20465;-60
2022/04/06 01:17:42;;;;;;;16.75;6.55;;;8.70;99.90;;;;;;7244967;32;20100;-59
2022/04/06 01:21:44;;;;;;;16.10;6.03;;;8.70;99.90;;;;;;7245324;32;20773;-60
2022/04/06 01:25:49;;;;;;;17.48;7.00;;;8.70;99.90;;;;;;7245162;32;20254;-59
2022/04/06 01:29:52;;;;;;;12.60;5.60;;;8.70;99.90;;;;;;7244312;32;20246;-59
2022/04/06 01:33:53;;;;;;;13.02;4.72;;;8.70;99.90;;;;;;7253215;32;20547;-58
2022/04/06 01:37:55;;;;;;;18.40;5.90;;;8.70;99.90;;;;;;7249294;32;20108;-60
2022/04/06 01:41:57;;;;;;;11.80;5.22;;;8.70;99.90;;;;;;7246919;32;20133;-59
2022/04/06 01:46:00;;;;;;;17.17;5.68;;;8.70;99.90;;;;;;7243143;32;20556;-59
2022/04/06 01:54:24;;;;;;;12.27;4.57;;;8.60;99.90;;;;;;7244075;32;20320;-58
2022/04/06 01:58:25;;;;;;;16.87;4.90;;;8.70;99.90;;;;;;7244937;32;20135;-59
2022/04/06 02:02:30;;;;;;;14.43;4.90;;;8.60;99.90;;;;;;7242839;32;20108;-59
2022/04/06 02:06:33;;;;;;;12.52;4.25;;;8.70;99.90;;;;;;7244678;32;20202;-59
2022/04/06 02:10:35;;;;;;;15.65;5.55;;;8.70;99.90;;;;;;7243775;32;20187;-58
2022/04/06 02:14:41;;;;;;;9.75;4.30;;;8.70;99.90;;;;;;7244855;32;20417;-58
2022/04/06 02:18:43;;;;;;;18.08;4.82;;;8.60;99.90;;;;;;7242029;32;20496;-59
2022/04/06 02:22:45;;;;;;;10.75;4.00;;;8.70;99.90;;;;;;7234861;32;20138;-59
2022/04/06 02:26:47;;;;;;;14.27;4.25;;;8.70;99.90;;;;;;7243698;32;20497;-58
2022/04/06 02:30:48;;;;;;;12.45;3.58;;;8.60;99.90;;;;;;7239946;32;20179;-58
2022/04/06 02:34:50;;;;;;;9.57;4.03;;;8.60;99.90;;;;;;7243201;32;20125;-58
2022/04/06 02:38:52;;;;;;;11.93;4.60;;;8.60;99.90;;;;;;7243934;32;20104;-59
2022/04/06 02:42:53;;;;;;;13.07;4.03;;;8.60;99.90;;;;;;7243249;32;20223;-59
2022/04/06 02:46:55;;;;;;;13.00;4.47;;;8.70;99.90;;;;;;7244107;32;20661;-59
2022/04/06 02:50:57;;;;;;;9.55;3.75;;;8.70;99.90;;;;;;7243693;32;20203;-59
2022/04/06 02:54:59;;;;;;;13.07;3.95;;;8.70;99.90;;;;;;7241019;32;20136;-59
2022/04/06 02:59:01;;;;;;;11.05;3.72;;;8.70;99.90;;;;;;7243257;32;20127;-58
2022/04/06 03:03:03;;;;;;;10.95;3.78;;;8.70;99.90;;;;;;7242054;32;20123;-59
2022/04/06 03:07:05;;;;;;;11.75;4.10;;;8.70;99.90;;;;;;7243741;32;20236;-58
2022/04/06 03:11:07;;;;;;;15.52;4.47;;;8.70;99.90;;;;;;7242715;32;20123;-60
2022/04/06 03:15:09;;;;;;;11.77;3.87;;;8.70;99.90;;;;;;7243257;32;20552;-58
2022/04/06 03:19:11;;;;;;;10.65;4.00;;;8.60;99.90;;;;;;7244563;32;20096;-58
2022/04/06 03:23:14;;;;;;;8.50;4.18;;;8.70;99.90;;;;;;7240398;32;20415;-59
2022/04/06 03:27:15;;;;;;;8.93;4.10;;;8.70;99.90;;;;;;7248174;32;20162;-58
2022/04/06 03:31:17;;;;;;;10.45;4.03;;;8.80;99.90;;;;;;7246433;32;20544;-58
2022/04/06 03:35:19;;;;;;;11.30;4.90;;;8.70;99.90;;;;;;7249073;32;20132;-59
2022/04/06 03:39:20;;;;;;;11.55;4.57;;;8.70;99.90;;;;;;7248816;32;20670;-59
2022/04/06 03:43:22;;;;;;;13.52;5.28;;;8.70;99.90;;;;;;7247778;32;20206;-60
2022/04/06 03:47:32;;;;;;;12.52;4.37;;;8.70;99.90;;;;;;7247573;32;20214;-59
2022/04/06 03:51:33;;;;;;;11.05;4.78;;;8.70;99.90;;;;;;7244541;32;20101;-58
2022/04/06 03:55:35;;;;;;;11.90;4.45;;;8.70;99.90;;;;;;7246324;32;20123;-58
2022/04/06 03:59:37;;;;;;;9.48;4.37;;;8.70;99.90;;;;;;7247441;32;20116;-58
2022/04/06 04:03:38;;;;;;;13.23;4.15;;;8.70;99.90;;;;;;7234637;32;20109;-58
2022/04/06 04:07:40;;;;;;;14.68;3.95;;;8.70;99.90;;;;;;7245466;32;20116;-59
2022/04/06 04:11:42;;;;;;;14.93;5.22;;;8.60;99.90;;;;;;7246867;32;20127;-58
2022/04/06 04:15:44;;;;;;;10.85;4.18;;;8.60;99.90;;;;;;7243883;32;20209;-59
2022/04/06 04:19:45;;;;;;;12.13;4.50;;;8.50;99.90;;;;;;7246770;32;20112;-58
2022/04/06 04:23:47;;;;;;;12.10;4.10;;;8.50;99.90;;;;;;7243192;32;20664;-59
2022/04/06 04:27:49;;;;;;;8.27;3.72;;;8.40;99.90;;;;;;7245233;32;20113;-59
2022/04/06 04:31:50;;;;;;;12.27;4.10;;;8.30;99.90;;;;;;7244592;32;20100;-58
2022/04/06 04:35:53;;;;;;;10.10;3.75;;;8.30;99.90;;;;;;7243502;32;20158;-58
2022/04/06 04:39:54;;;;;;;12.95;3.80;;;8.30;99.90;;;;;;7237672;32;20309;-58
2022/04/06 04:43:56;;;;;;;11.43;3.37;;;8.30;99.90;;;;;;7248161;32;20132;-60
2022/04/06 04:47:58;;;;;;;10.70;2.92;;;8.40;99.90;;;;;;7245477;32;20211;-59
2022/04/06 04:52:00;;;;;;;8.35;3.50;;;8.50;99.90;;;;;;7245613;32;20200;-59
2022/04/06 04:56:01;;;;;;;7.87;2.97;;;8.40;99.90;;;;;;7245737;32;20109;-58
2022/04/06 05:00:06;;;;;;;7.95;2.90;;;8.40;99.90;;;;;;7242947;32;20120;-61
2022/04/06 05:04:07;;;;;;;9.65;3.25;;;8.40;99.90;;;;;;7244991;32;20426;-60
2022/04/06 05:08:09;;;;;;;9.05;3.00;;;8.40;99.90;;;;;;7239867;32;20134;-60
2022/04/06 05:12:11;;;;;;;10.77;3.03;;;8.50;99.90;;;;;;7240173;32;20101;-59
2022/04/06 05:16:13;;;;;;;12.98;2.67;;;8.50;99.90;;;;;;7240511;32;20097;-59
2022/04/06 05:20:15;;;;;;;9.68;3.50;;;8.60;99.90;;;;;;7242766;32;20314;-59
2022/04/06 05:24:17;;;;;;;13.25;3.28;;;8.70;99.90;;;;;;7246980;32;20109;-60
2022/04/06 05:28:18;;;;;;;10.73;3.20;;;8.60;99.90;;;;;;7242113;32;20223;-59
2022/04/06 05:32:20;;;;;;;9.75;3.62;;;8.70;99.90;;;;;;7245380;32;20165;-59
2022/04/06 05:36:24;;;;;;;8.55;3.47;;;8.70;99.90;;;;;;7237526;32;20130;-60
2022/04/06 05:40:26;;;;;;;9.60;3.50;;;8.70;99.90;;;;;;7241218;32;20142;-58
2022/04/06 05:44:28;;;;;;;12.52;3.62;;;8.70;99.90;;;;;;7243924;32;20108;-59
2022/04/06 05:48:29;;;;;;;10.20;4.03;;;8.90;99.90;;;;;;7236196;32;20137;-59
2022/04/06 05:52:31;;;;;;;11.10;3.25;;;8.90;99.90;;;;;;7242864;32;20180;-61
2022/04/06 05:56:33;;;;;;;12.57;4.15;;;8.90;99.90;;;;;;7244931;32;20112;-59
2022/04/06 06:00:36;;;;;;;11.50;4.12;;;8.90;99.90;;;;;;7228745;32;20211;-60
2022/04/06 06:04:38;;;;;;;10.75;3.78;;;8.80;99.90;;;;;;7242016;32;20529;-60
2022/04/06 06:08:40;;;;;;;9.38;3.15;;;8.90;99.90;;;;;;7242921;32;20104;-59
2022/04/06 06:12:42;;;;;;;11.80;4.07;;;8.90;99.90;;;;;;7245475;32;20250;-58
2022/04/06 06:16:45;;;;;;;9.38;3.17;;;8.90;99.90;;;;;;7241203;32;20234;-61
2022/04/06 06:20:47;;;;;;;14.18;3.65;;;8.90;99.90;;;;;;7241167;32;20113;-62
2022/04/06 06:24:48;;;;;;;11.07;3.60;;;8.90;99.90;;;;;;7240412;32;20223;-58
2022/04/06 06:28:50;;;;;;;8.65;2.95;;;8.90;99.90;;;;;;7239758;32;20203;-60
2022/04/06 06:32:51;;;;;;;8.95;3.67;;;8.90;99.90;;;;;;7241139;32;20691;-59
2022/04/06 06:36:53;;;;;;;10.38;3.20;;;8.90;99.90;;;;;;7240439;32;20100;-61
2022/04/06 06:40:55;;;;;;;8.68;2.83;;;8.90;99.90;;;;;;7241106;32;20305;-62
2022/04/06 06:44:57;;;;;;;5.87;2.60;;;8.90;99.90;;;;;;7225765;32;20126;-62
2022/04/06 06:49:02;;;;;;;13.80;3.08;;;8.90;99.90;;;;;;7240699;32;20128;-60
2022/04/06 06:53:04;;;;;;;9.38;3.22;;;8.90;99.90;;;;;;7239465;32;20116;-60
2022/04/06 06:57:06;;;;;;;7.93;2.95;;;8.90;99.90;;;;;;7241754;32;20108;-60
2022/04/06 07:01:08;;;;;;;11.07;2.65;;;8.90;99.90;;;;;;7238838;32;20230;-60
2022/04/06 07:05:10;;;;;;;12.05;3.15;;;8.90;99.90;;;;;;7238237;32;20152;-61
2022/04/06 07:09:11;;;;;;;9.98;3.12;;;9.00;99.90;;;;;;7239392;32;20180;-62
2022/04/06 07:13:16;;;;;;;9.10;3.10;;;9.00;99.90;;;;;;7241965;32;20805;-61
2022/04/06 07:17:19;;;;;;;9.73;3.37;;;9.00;99.90;;;;;;7241233;32;20183;-61
2022/04/06 07:21:20;;;;;;;10.10;2.65;;;9.00;99.90;;;;;;7235797;32;20131;-61
2022/04/06 07:25:22;;;;;;;8.30;2.50;;;9.00;99.90;;;;;;7238317;32;20124;-59
2022/04/06 07:29:24;;;;;;;5.97;2.20;;;9.00;99.90;;;;;;7238575;32;20159;-62
2022/04/06 07:33:25;;;;;;;10.52;2.53;;;9.00;99.90;;;;;;7237898;32;20127;-61
2022/04/06 07:37:39;;;;;;;8.38;3.28;;;9.00;99.90;;;;;;7240692;32;20104;-60
2022/04/06 07:41:40;;;;;;;5.35;2.58;;;9.00;99.90;;;;;;7239652;32;20156;-61
2022/04/06 07:45:42;;;;;;;8.45;2.78;;;9.00;99.90;;;;;;7239459;32;20783;-59
2022/04/06 07:49:44;;;;;;;9.65;2.80;;;9.00;99.90;;;;;;7241181;32;20485;-62
2022/04/06 07:53:45;;;;;;;9.98;2.78;;;8.90;99.90;;;;;;7245914;32;20196;-61
2022/04/06 07:57:53;;;;;;;;;;;8.90;99.90;;;;;;7244015;32;20096;-61
2022/04/06 08:01:54;;;;;;;5.68;2.83;;;8.90;99.90;;;;;;7239532;32;20015;-59
2022/04/06 08:05:56;;;;;;;8.88;3.22;;;8.90;99.90;;;;;;7239828;32;20515;-61
2022/04/06 08:09:58;;;;;;;10.27;2.30;;;8.90;99.90;;;;;;7239991;32;20178;-62
2022/04/06 08:14:00;;;;;;;6.78;2.50;;;9.00;99.90;;;;;;7248981;32;20131;-60
2022/04/06 08:18:01;;;;;;;7.28;2.75;;;9.00;99.90;;;;;;7248230;32;20218;-61
2022/04/06 08:22:03;;;;;;;7.82;2.40;;;9.10;99.90;;;;;;7244475;32;20151;-60
2022/04/06 08:26:10;;;;;;;9.30;2.40;;;9.10;99.90;;;;;;7245093;32;20564;-60
2022/04/06 08:30:13;;;;;;;5.75;1.90;;;9.20;99.90;;;;;;7244265;32;20100;-62
2022/04/06 08:34:15;;;;;;;3.65;2.05;;;9.30;99.90;;;;;;7245429;32;20262;-60
2022/04/06 08:38:17;;;;;;;6.37;1.52;;;9.30;99.90;;;;;;7249187;32;20108;-60
2022/04/06 08:42:19;;;;;;;5.05;1.55;;;9.30;99.90;;;;;;7251346;32;20104;-60
2022/04/06 08:46:38;;;;;;;;;;;9.30;99.90;;;;;;7245031;32;20215;-59
2022/04/06 08:50:40;;;;;;;4.00;1.87;;;9.50;99.90;;;;;;7242103;32;20479;-61
2022/04/06 08:54:43;;;;;;;5.68;1.40;;;9.60;99.90;;;;;;7242109;32;20117;-61
2022/04/06 08:58:45;;;;;;;6.20;1.25;;;9.80;99.90;;;;;;7240832;32;20238;-61
2022/04/06 09:02:46;;;;;;;6.72;1.25;;;9.90;99.90;;;;;;7243482;32;20112;-61
2022/04/06 09:06:48;;;;;;;8.90;1.42;;;10.00;99.90;;;;;;7244012;32;20124;-61
2022/04/06 09:10:50;;;;;;;5.35;1.10;;;10.20;99.90;;;;;;7239669;32;20127;-62
2022/04/06 09:15:04;;;;;;;5.18;1.27;;;10.30;99.90;;;;;;7243335;32;20610;-60
2022/04/06 09:19:11;;;;;;;6.30;1.62;;;10.40;99.90;;;;;;7241636;32;20705;-60
2022/04/06 09:23:14;;;;;;;6.35;1.20;;;10.40;99.90;;;;;;7240591;32;20501;-61
2022/04/06 09:27:16;;;;;;;4.65;1.00;;;10.40;99.90;;;;;;7238904;32;20579;-61
2022/04/06 09:31:20;;;;;;;7.22;1.30;;;10.40;99.90;;;;;;7238753;32;20128;-61
2022/04/06 09:35:26;;;;;;;3.87;1.00;;;10.40;99.90;;;;;;7240956;32;20113;-59
2022/04/06 09:39:46;;;;;;;6.93;1.50;;;10.40;99.90;;;;;;7242130;32;20100;-60
2022/04/06 09:43:50;;;;;;;7.10;1.42;;;10.30;99.90;;;;;;7242795;32;20253;-59
2022/04/06 09:47:53;;;;;;;3.95;1.08;;;10.20;99.90;;;;;;7241597;32;20097;-64
2022/04/06 09:51:55;;;;;;;3.58;0.95;;;10.20;99.90;;;;;;7243745;32;20753;-60
2022/04/06 09:55:57;;;;;;;5.87;1.00;;;10.00;99.90;;;;;;7241987;32;20501;-62
2022/04/06 09:59:59;;;;;;;5.85;1.10;;;10.00;99.90;;;;;;7242598;32;20187;-60
2022/04/06 10:04:06;;;;;;;2.65;1.00;;;10.00;99.90;;;;;;7242412;32;20119;-61
2022/04/06 10:08:09;;;;;;;5.70;1.10;;;10.00;99.90;;;;;;7242399;32;20333;-61
2022/04/06 10:12:11;;;;;;;5.37;1.25;;;10.00;99.90;;;;;;7243139;32;20119;-60
2022/04/06 10:16:16;;;;;;;6.22;0.95;;;10.10;99.90;;;;;;7244158;32;20156;-61
2022/04/06 10:20:25;;;;;;;4.93;1.10;;;10.10;99.90;;;;;;7242642;32;20216;-60
2022/04/06 10:25:01;;;;;;;4.75;1.17;;;10.00;99.90;;;;;;7236238;32;20762;-62
2022/04/06 10:29:06;;;;;;;2.58;0.90;;;10.10;99.90;;;;;;7241219;32;20109;-62
2022/04/06 10:33:21;;;;;;;3.55;0.98;;;10.20;99.90;;;;;;7240806;32;20609;-61
2022/04/06 10:37:23;;;;;;;3.47;1.33;;;10.30;99.90;;;;;;7241298;32;20108;-59
2022/04/06 10:41:29;;;;;;;5.78;1.00;;;10.30;99.90;;;;;;7242357;32;20191;-60
2022/04/06 10:45:49;;;;;;;4.30;1.00;;;10.30;99.90;;;;;;7241568;32;20138;-60
2022/04/06 10:50:16;;;;;;;6.22;1.10;;;10.30;99.90;;;;;;7240162;32;20187;-62
2022/04/06 10:54:17;;;;;;;4.20;1.20;;;10.30;99.90;;;;;;7240923;32;20120;-60
2022/04/06 10:58:22;;;;;;;3.83;1.02;;;10.40;99.90;;;;;;7241252;32;20117;-58
2022/04/06 11:02:25;;;;;;;5.30;1.17;;;10.50;99.90;;;;;;7239387;32;20970;-62
2022/04/06 11:06:49;;;;;;;3.67;1.60;;;10.50;99.90;;;;;;7234176;32;20757;-60
2022/04/06 11:10:50;;;;;;;5.05;1.30;;;10.60;99.90;;;;;;7241365;32;20101;-60
2022/04/06 11:14:58;;;;;;;4.40;1.20;;;10.60;99.90;;;;;;7239711;32;20702;-59
2022/04/06 11:19:00;;;;;;;3.95;1.10;;;10.50;99.90;;;;;;7240733;32;20183;-59
2022/04/06 11:23:02;;;;;;;4.68;1.15;;;10.50;99.90;;;;;;7241516;32;20122;-62
2022/04/06 11:27:03;;;;;;;5.65;1.35;;;10.70;99.90;;;;;;7242000;32;20117;-63
2022/04/06 11:31:06;;;;;;;6.30;1.08;;;10.60;99.90;;;;;;7240370;32;20120;-62
2022/04/06 11:35:10;;;;;;;6.05;1.45;;;10.50;99.90;;;;;;7241261;32;20116;-61
2022/04/06 11:39:13;;;;;;;7.03;1.40;;;10.50;99.90;;;;;;7238993;32;20135;-60
2022/04/06 11:43:15;;;;;;;7.95;1.75;;;10.30;99.90;;;;;;7246652;32;20520;-60
2022/04/06 11:47:27;;;;;;;6.30;1.60;;;10.30;99.90;;;;;;7242580;32;20184;-62
2022/04/06 11:51:28;;;;;;;3.75;1.27;;;10.30;99.90;;;;;;7246624;32;20120;-59
2022/04/06 11:55:42;;;;;;;5.15;1.15;;;10.20;99.90;;;;;;7247130;32;20142;-59
2022/04/06 11:59:56;;;;;;;3.58;1.42;;;10.20;99.90;;;;;;7246552;32;20868;-63
2022/04/06 12:03:59;;;;;;;6.95;1.65;;;10.10;99.90;;;;;;7250032;32;20127;-59
2022/04/06 12:08:10;;;;;;;7.95;1.55;;;10.20;99.90;;;;;;7243102;32;20682;-57
2022/04/06 12:12:13;;;;;;;4.25;1.20;;;10.30;99.90;;;;;;7240064;32;20139;-57
2022/04/06 12:16:15;;;;;;;3.20;1.08;;;10.50;99.90;;;;;;7242093;32;20238;-55
2022/04/06 12:20:25;;;;;;;6.40;1.10;;;10.60;99.90;;;;;;7246177;32;20179;-56
2022/04/06 12:24:39;;;;;;;3.60;1.50;;;10.70;99.90;;;;;;7246335;32;20134;-60
2022/04/06 12:28:43;;;;;;;5.22;1.42;;;10.70;99.90;;;;;;7242330;32;20848;-57
2022/04/06 12:32:48;;;;;;;5.12;1.20;;;10.80;99.90;;;;;;7243294;32;20109;-56
2022/04/06 12:36:50;;;;;;;7.50;1.37;;;10.80;99.90;;;;;;7244377;32;20177;-61
2022/04/06 12:41:07;;;;;;;4.57;1.40;;;10.90;99.90;;;;;;7241497;32;20108;-59
2022/04/06 12:45:21;;;;;;;3.75;1.20;;;10.70;99.90;;;;;;7241950;32;20101;-60
2022/04/06 12:49:24;;;;;;;4.43;1.17;;;10.50;99.90;;;;;;7241848;32;20180;-62
2022/04/06 12:53:25;;;;;;;3.03;1.30;;;10.50;99.90;;;;;;7245255;32;20210;-60
2022/04/06 12:57:28;;;;;;;3.20;1.35;;;10.50;99.90;;;;;;7242920;32;20191;-59
2022/04/06 13:01:29;;;;;;;4.15;1.20;;;10.40;99.90;;;;;;7241123;32;20369;-61
2022/04/06 13:05:32;;;;;;;4.60;1.50;;;10.30;99.90;;;;;;7243104;32;20592;-60
2022/04/06 13:09:33;;;;;;;4.05;1.35;;;10.30;99.90;;;;;;7242203;32;20105;-60
2022/04/06 13:13:35;;;;;;;5.78;1.77;;;10.30;99.90;;;;;;7243707;32;20250;-59
2022/04/06 13:17:37;;;;;;;5.00;1.42;;;10.30;99.90;;;;;;7242559;32;20108;-62
2022/04/06 13:21:39;;;;;;;4.90;1.10;;;10.40;99.90;;;;;;7241309;32;20710;-60
2022/04/06 13:25:42;;;;;;;5.40;1.70;;;10.50;99.90;;;;;;7246074;32;20418;-63
2022/04/06 13:29:44;;;;;;;3.65;1.48;;;10.50;99.90;;;;;;7243915;32;20149;-59
2022/04/06 13:33:46;;;;;;;2.10;1.00;;;10.50;99.90;;;;;;7243216;32;20203;-61
2022/04/06 13:37:47;;;;;;;3.67;1.20;;;10.60;99.90;;;;;;7240188;32;20131;-61
2022/04/06 13:41:57;;;;;;;3.08;1.23;;;10.60;99.90;;;;;;7241186;32;20872;-59
2022/04/06 13:45:58;;;;;;;4.12;1.10;;;10.70;99.90;;;;;;7242790;32;20167;-60
2022/04/06 13:50:00;;;;;;;2.90;1.35;;;10.80;99.90;;;;;;7242909;32;20550;-59
2022/04/06 13:54:03;;;;;;;5.32;1.73;;;10.80;99.90;;;;;;7242706;32;20127;-60
2022/04/06 13:58:05;;;;;;;3.65;1.33;;;10.90;99.90;;;;;;7242372;32;20156;-59
2022/04/06 14:02:06;;;;;;;3.55;1.40;;;11.10;99.90;;;;;;7241480;32;20203;-60
2022/04/06 14:06:08;;;;;;;4.18;1.35;;;11.10;99.90;;;;;;7240407;32;20770;-61
2022/04/06 14:10:10;;;;;;;4.75;1.15;;;11.10;99.90;;;;;;7241994;32;20097;-61
2022/04/06 14:14:12;;;;;;;2.72;1.37;;;11.00;99.90;;;;;;7237479;32;20203;-61
2022/04/06 14:18:14;;;;;;;4.97;1.27;;;10.90;99.90;;;;;;7237649;32;20211;-62
2022/04/06 14:22:16;;;;;;;2.95;1.08;;;10.90;99.90;;;;;;7242444;32;20286;-60
2022/04/06 14:26:18;;;;;;;4.68;1.30;;;10.90;99.90;;;;;;7249485;32;20249;-59
2022/04/06 14:30:20;;;;;;;3.37;1.12;;;10.90;99.90;;;;;;7241690;32;20119;-59
2022/04/06 14:34:22;;;;;;;2.35;1.20;;;11.00;99.90;;;;;;7240087;32;20706;-59
2022/04/06 14:38:27;;;;;;;4.93;1.12;;;11.00;99.90;;;;;;7246170;32;20104;-59
2022/04/06 14:42:29;;;;;;;5.03;1.20;;;11.10;99.90;;;;;;7233480;32;20124;-61
2022/04/06 14:46:30;;;;;;;3.90;1.33;;;11.20;99.90;;;;;;7242335;32;20100;-64
2022/04/06 14:50:32;;;;;;;3.03;1.10;;;11.40;99.90;;;;;;7245822;32;20241;-63
2022/04/06 14:54:34;;;;;;;2.30;0.90;;;11.40;99.90;;;;;;7238279;32;20142;-61
2022/04/06 14:58:35;;;;;;;5.50;1.10;;;11.60;99.90;;;;;;7241283;32;20123;-61
2022/04/06 15:02:37;;;;;;;4.35;1.25;;;11.60;99.90;;;;;;7240664;32;20123;-61
2022/04/06 15:06:39;;;;;;;2.50;1.30;;;11.50;99.90;;;;;;7241419;32;20113;-63
2022/04/06 15:10:42;;;;;;;2.05;1.02;;;11.50;99.90;;;;;;7239729;32;20191;-59
2022/04/06 15:14:43;;;;;;;2.25;0.95;;;11.50;99.90;;;;;;7240901;32;20227;-61
2022/04/06 15:18:45;;;;;;;3.20;1.23;;;11.40;99.90;;;;;;7235879;32;20109;-61
2022/04/06 15:22:47;;;;;;;3.10;1.27;;;11.30;99.90;;;;;;7249688;32;20211;-61
2022/04/06 15:26:49;;;;;;;5.05;1.42;;;11.30;99.90;;;;;;7235036;32;20101;-62
2022/04/06 15:30:50;;;;;;;1.87;0.95;;;11.20;99.90;;;;;;7215784;32;20244;-60
2022/04/06 15:39:13;;;;;;;2.28;1.20;;;11.20;99.90;;;;;;7246449;32;20100;-58
2022/04/06 15:43:22;;;;;;;5.53;1.83;;;11.20;99.90;;;;;;7247788;32;20662;-59
2022/04/06 15:47:24;;;;;;;8.52;1.27;;;11.20;99.90;;;;;;7247580;32;20182;-63
2022/04/06 15:51:26;;;;;;;3.78;1.27;;;11.20;99.90;;;;;;7248056;32;20200;-61
2022/04/06 15:55:29;;;;;;;4.87;1.20;;;11.20;99.90;;;;;;7247860;32;20606;-59
2022/04/06 15:59:31;;;;;;;2.85;1.10;;;11.20;99.90;;;;;;7244730;32;20223;-60
2022/04/06 16:03:33;;;;;;;7.12;1.33;;;11.10;99.90;;;;;;7246950;32;20199;-61
2022/04/06 16:07:37;;;;;;;2.45;1.00;;;11.20;99.90;;;;;;7246856;32;20128;-62
2022/04/06 16:11:39;;;;;;;2.30;0.82;;;11.10;99.90;;;;;;7247314;32;20196;-61
2022/04/06 16:15:41;;;;;;;2.95;1.00;;;11.20;99.90;;;;;;7247098;32;20270;-61
2022/04/06 16:19:44;;;;;;;2.78;1.00;;;11.20;99.90;;;;;;7247755;32;20243;-60
2022/04/06 16:23:47;;;;;;;1.83;0.85;;;11.20;99.90;;;;;;7250183;32;20109;-60
2022/04/06 16:27:49;;;;;;;3.37;1.10;;;11.20;99.90;;;;;;7241486;32;20105;-61
2022/04/06 16:31:50;;;;;;;5.78;1.40;;;11.20;99.90;;;;;;7239751;32;20210;-60
2022/04/06 16:35:52;;;;;;;8.80;5.22;;;11.20;99.90;;;;;;7240309;32;20230;-62
2022/04/06 16:39:54;;;;;;;2.67;1.20;;;11.10;99.90;;;;;;7239748;32;20122;-61
2022/04/06 16:43:57;;;;;;;3.08;1.20;;;11.10;99.90;;;;;;7242831;32;20108;-60
2022/04/06 16:48:01;;;;;;;2.67;1.10;;;11.10;99.90;;;;;;7227345;32;20100;-60
2022/04/06 16:56:23;;;;;;;5.78;1.35;;;11.10;99.90;;;;;;7249783;32;20551;-60
2022/04/06 17:00:24;;;;;;;4.18;1.30;;;11.10;99.90;;;;;;7244698;32;20183;-62
2022/04/06 17:04:27;;;;;;;2.60;1.40;;;11.10;99.90;;;;;;7247652;32;20206;-62
2022/04/06 17:08:28;;;;;;;2.08;1.30;;;11.10;99.90;;;;;;7244392;32;20185;-61
2022/04/06 17:12:33;;;;;;;3.15;1.77;;;11.10;99.90;;;;;;7247305;32;20222;-61
2022/04/06 17:16:35;;;;;;;6.57;2.70;;;11.10;99.90;;;;;;7242779;32;20126;-60
2022/04/06 17:20:37;;;;;;;7.28;1.33;;;11.10;99.90;;;;;;7244066;32;20245;-61
2022/04/06 17:24:38;;;;;;;3.87;1.60;;;11.10;99.90;;;;;;7240750;32;20682;-60
2022/04/06 17:28:40;;;;;;;3.12;1.33;;;11.00;99.90;;;;;;7245597;32;20168;-61
2022/04/06 17:32:42;;;;;;;3.12;1.25;;;11.00;99.90;;;;;;7236192;32;20128;-61
2022/04/06 17:36:44;;;;;;;4.28;1.33;;;11.00;99.90;;;;;;7244578;32;20196;-60
2022/04/06 17:40:46;;;;;;;3.97;2.05;;;11.00;99.90;;;;;;7248427;32;20166;-60
2022/04/06 17:44:47;;;;;;;3.28;1.60;;;11.00;99.90;;;;;;7242585;32;20847;-58
2022/04/06 17:48:49;;;;;;;5.60;1.80;;;11.00;99.90;;;;;;7240538;32;20516;-60
2022/04/06 17:52:51;;;;;;;6.32;2.90;;;11.00;99.90;;;;;;7244159;32;20128;-60
2022/04/06 17:56:53;;;;;;;5.12;1.87;;;11.00;99.90;;;;;;7244027;32;20650;-60
2022/04/06 18:03:58;;;;;;;3.90;1.90;;;11.00;99.90;;;;;;7358107;31;20219;-60
2022/04/06 18:08:00;;;;;;;5.32;2.05;;;11.00;99.90;;;;;;7335880;32;20158;-60
2022/04/06 18:16:22;;;;;;;4.70;1.80;;;10.90;99.90;;;;;;7334749;32;20158;-60
2022/04/06 18:20:24;;;;;;;5.80;2.47;;;10.90;99.90;;;;;;7334121;32;20257;-58
2022/04/06 18:24:26;;;;;;;4.85;2.40;;;10.70;99.90;;;;;;7341647;32;20103;-57
2022/04/06 18:28:28;;;;;;;3.50;2.12;;;10.70;99.90;;;;;;7338453;32;20270;-61
2022/04/06 18:32:29;;;;;;;8.80;2.75;;;10.60;99.90;;;;;;7339704;32;20836;-59
2022/04/06 18:36:31;;;;;;;7.78;3.20;;;10.20;99.90;;;;;;7340776;32;20218;-63
2022/04/06 18:40:33;;;;;;;6.70;2.60;;;10.20;99.90;;;;;;7340720;32;20221;-61
2022/04/06 18:44:40;;;;;;;3.92;2.55;;;10.10;99.90;;;;;;7340573;32;20108;-61
2022/04/06 18:48:42;;;;;;;4.97;2.65;;;10.00;99.90;;;;;;7342676;32;20586;-58
2022/04/06 18:52:43;;;;;;;4.35;2.22;;;10.20;99.90;;;;;;7341433;32;20134;-60
2022/04/06 18:56:46;;;;;;;5.75;2.90;;;10.10;99.90;;;;;;7338613;32;20103;-59
2022/04/06 19:00:47;;;;;;;4.90;2.65;;;10.10;99.90;;;;;;7337203;32;20189;-60
2022/04/06 19:04:49;;;;;;;5.43;3.10;;;10.20;99.90;;;;;;7340158;32;20100;-59
2022/04/06 19:08:51;;;;;;;6.87;3.60;;;10.10;99.90;;;;;;7340052;32;20108;-60
2022/04/06 19:12:52;;;;;;;8.68;3.87;;;10.00;99.90;;;;;;7331474;32;20158;-60
2022/04/06 19:16:54;;;;;;;6.45;3.85;;;9.90;99.90;;;;;;7321465;32;20182;-61
2022/04/06 19:20:56;;;;;;;7.00;3.85;;;9.90;99.90;;;;;;7317270;32;20100;-59
2022/04/06 19:24:58;;;;;;;8.13;3.87;;;9.90;99.90;;;;;;7322732;32;20579;-60
2022/04/06 19:28:59;;;;;;;7.70;3.65;;;10.00;99.90;;;;;;7320759;32;20575;-60
2022/04/06 19:33:02;;;;;;;7.28;3.90;;;10.00;99.90;;;;;;7312718;32;20104;-61
2022/04/06 19:37:05;;;;;;;7.25;4.45;;;10.10;99.90;;;;;;7320774;32;20112;-60
2022/04/06 19:41:07;;;;;;;13.02;4.80;;;10.00;99.90;;;;;;7318490;32;20107;-61
2022/04/06 19:45:10;;;;;;;10.30;5.00;;;9.90;99.90;;;;;;7320383;32;20112;-59
2022/04/06 19:49:11;;;;;;;7.12;4.30;;;9.90;99.90;;;;;;7320788;32;20125;-60
2022/04/06 19:53:13;;;;;;;9.57;4.57;;;9.80;99.90;;;;;;7319338;32;20092;-60
2022/04/06 19:57:15;;;;;;;10.13;4.50;;;9.80;99.90;;;;;;7322449;32;20142;-60
2022/04/06 20:01:16;;;;;;;9.60;4.15;;;9.80;99.90;;;;;;7314495;32;20762;-61
2022/04/06 20:05:18;;;;;;;10.15;4.53;;;9.80;99.90;;;;;;7318972;32;20262;-59
2022/04/06 20:09:20;;;;;;;7.87;4.30;;;9.80;99.90;;;;;;7323377;32;20134;-60
2022/04/06 20:13:22;;;;;;;6.95;4.15;;;9.90;99.90;;;;;;7316136;32;20111;-58
2022/04/06 20:17:24;;;;;;;8.20;4.22;;;9.90;99.90;;;;;;7322205;32;20715;-60
2022/04/06 20:21:26;;;;;;;7.15;4.57;;;9.90;99.90;;;;;;7315815;32;20123;-60
2022/04/06 20:25:27;;;;;;;8.35;4.12;;;9.90;99.90;;;;;;7319501;32;20108;-58
2022/04/06 20:29:29;;;;;;;7.25;4.37;;;9.90;99.90;;;;;;7318696;32;20108;-59
2022/04/06 20:33:32;;;;;;;11.43;4.50;;;10.00;99.90;;;;;;7311877;32;20108;-60
2022/04/06 20:37:36;;;;;;;7.75;3.92;;;10.00;99.90;;;;;;7312710;32;20122;-59
2022/04/06 20:41:38;;;;;;;8.63;3.70;;;10.00;99.90;;;;;;7319080;32;20182;-58
2022/04/06 20:45:41;;;;;;;6.72;3.50;;;10.10;99.90;;;;;;7321280;32;20118;-59
2022/04/06 20:49:44;;;;;;;7.18;4.32;;;10.10;99.90;;;;;;7319468;32;20103;-62
2022/04/06 20:53:46;;;;;;;8.70;3.62;;;10.10;99.90;;;;;;7316812;32;20855;-59
2022/04/06 20:57:47;;;;;;;9.00;3.80;;;10.20;99.90;;;;;;7319989;32;20428;-59
2022/04/06 21:01:50;;;;;;;7.82;3.62;;;10.10;99.90;;;;;;7317501;32;20111;-58
2022/04/06 21:05:52;;;;;;;7.62;3.17;;;10.10;99.90;;;;;;7315636;32;20847;-59
2022/04/06 21:09:54;;;;;;;7.55;3.70;;;10.00;99.90;;;;;;7318743;32;20121;-60
2022/04/06 21:13:56;;;;;;;6.25;3.47;;;10.00;99.90;;;;;;7315290;32;20119;-61
2022/04/06 21:17:59;;;;;;;8.23;3.45;;;10.00;99.90;;;;;;7317585;32;20150;-59
2022/04/06 21:22:01;;;;;;;7.35;3.22;;;9.90;99.90;;;;;;7316402;32;20249;-59
2022/04/06 21:26:03;;;;;;;6.78;2.85;;;9.90;99.90;;;;;;7314560;32;20127;-60
2022/04/06 21:30:05;;;;;;;6.20;3.33;;;9.90;99.90;;;;;;7318815;32;20130;-58